Time;durP1;ratioP1;P1;durP2;ratioP2;P2;SDS_P1;SDS_P2;PMS_P1;PMS_P2;Temp;Humidity;BMP_temperature;BMP_pressure;BME280_temperature;BME280_humidity;BME280_pressure;Samples;Min_cycle;Max_cycle;Signal;HPM_P1;HPM_P2
2022/01/20 00:01:14;;;;;;;31.02;4.15;;;8.30;99.90;;;;;;5104130;28;20402;-70
2022/01/20 00:03:41;;;;;;;26.07;3.97;;;8.30;99.90;;;;;;5108700;28;20439;-69
2022/01/20 00:09:09;;;;;;;25.80;4.85;;;8.30;99.90;;;;;;5107861;28;20522;-69
2022/01/20 00:28:11;;;;;;;31.15;3.70;;;8.30;99.90;;;;;;5117862;27;20902;-69
2022/01/20 00:30:45;;;;;;;33.97;4.70;;;8.30;99.90;;;;;;5109620;27;20765;-69
2022/01/20 00:38:23;;;;;;;30.33;4.25;;;8.20;99.90;;;;;;5112880;27;20401;-70
2022/01/20 00:40:50;;;;;;;34.53;4.70;;;8.20;99.90;;;;;;5112705;27;20406;-70
2022/01/20 00:43:15;;;;;;;32.80;4.63;;;8.20;99.90;;;;;;5109740;27;20506;-68
2022/01/20 00:45:41;;;;;;;32.80;4.78;;;8.20;99.90;;;;;;5110112;27;20544;-71
2022/01/20 00:48:06;;;;;;;30.53;4.53;;;8.10;99.90;;;;;;5109802;28;20407;-70
2022/01/20 00:50:35;;;;;;;29.65;4.03;;;8.10;99.90;;;;;;5121203;27;20414;-70
2022/01/20 00:53:01;;;;;;;31.20;4.55;;;8.10;99.90;;;;;;5110419;28;20732;-70
2022/01/20 00:55:27;;;;;;;29.92;3.92;;;8.10;99.90;;;;;;5121895;27;20942;-70
2022/01/20 00:57:52;;;;;;;28.95;4.20;;;8.10;99.90;;;;;;5108365;28;20442;-70
2022/01/20 01:00:18;;;;;;;29.70;4.05;;;8.10;99.90;;;;;;5112540;27;20488;-71
2022/01/20 01:02:44;;;;;;;29.73;4.32;;;8.20;99.90;;;;;;5107532;27;20404;-70
2022/01/20 01:05:13;;;;;;;27.17;3.58;;;8.20;99.90;;;;;;5112364;27;20984;-69
2022/01/20 01:07:45;;;;;;;32.20;4.10;;;8.20;99.90;;;;;;5118057;27;20874;-70
2022/01/20 01:10:17;;;;;;;28.90;3.90;;;8.30;99.90;;;;;;5113712;27;20395;-70
2022/01/20 01:12:52;;;;;;;28.95;4.30;;;8.30;99.90;;;;;;5089559;28;20468;-70
2022/01/20 01:15:26;;;;;;;26.67;4.10;;;8.30;99.90;;;;;;5114319;27;20421;-70
2022/01/20 01:23:33;;;;;;;22.95;3.58;;;8.40;99.90;;;;;;5118530;27;20913;-70
2022/01/20 01:26:01;;;;;;;28.95;4.70;;;8.40;99.90;;;;;;5114862;27;20460;-70
2022/01/20 01:28:30;;;;;;;27.73;3.78;;;8.40;99.90;;;;;;5115289;27;20453;-70
2022/01/20 01:33:51;;;;;;;24.47;3.40;;;8.30;99.90;;;;;;5122885;27;20491;-69
2022/01/20 01:36:20;;;;;;;22.77;3.60;;;8.30;99.90;;;;;;5112660;27;20419;-69
2022/01/20 01:38:47;;;;;;;20.15;3.30;;;8.30;99.90;;;;;;5117138;27;20390;-69
2022/01/20 01:41:19;;;;;;;27.80;3.83;;;8.20;99.90;;;;;;5111655;27;20824;-69
2022/01/20 01:43:48;;;;;;;27.02;3.95;;;8.20;99.90;;;;;;5109747;27;20514;-70
2022/01/20 01:46:15;;;;;;;28.80;3.70;;;8.20;99.90;;;;;;5066428;28;20436;-70
2022/01/20 01:48:43;;;;;;;32.42;3.95;;;8.10;99.90;;;;;;5069915;28;20396;-69
2022/01/20 01:51:09;;;;;;;26.43;3.97;;;8.10;99.90;;;;;;5065622;28;20419;-70
2022/01/20 01:53:36;;;;;;;37.85;4.70;;;8.00;99.90;;;;;;5067875;28;20411;-70
2022/01/20 01:56:04;;;;;;;32.47;4.45;;;8.00;99.90;;;;;;5067733;28;20406;-70
2022/01/20 01:58:30;;;;;;;42.63;4.72;;;8.00;99.90;;;;;;5066999;28;20396;-69
2022/01/20 02:01:07;;;;;;;36.00;4.97;;;8.00;99.90;;;;;;5066588;28;20415;-70
2022/01/20 02:03:43;;;;;;;36.97;5.32;;;8.00;99.90;;;;;;5065988;28;20442;-69
2022/01/20 02:19:57;;;;;;;23.83;3.53;;;8.00;99.90;;;;;;5067434;28;20399;-69
2022/01/20 02:22:33;;;;;;;23.83;3.50;;;8.00;99.90;;;;;;5066065;28;21012;-69
2022/01/20 02:25:27;;;;;;;25.75;3.58;;;8.00;99.90;;;;;;5067151;28;20403;-69
2022/01/20 02:27:55;;;;;;;22.55;3.70;;;7.90;99.90;;;;;;5064842;28;20460;-69
2022/01/20 02:30:24;;;;;;;21.85;3.25;;;7.90;99.90;;;;;;5063731;28;20487;-69
2022/01/20 02:33:07;;;;;;;22.25;3.85;;;7.90;99.90;;;;;;5050059;28;20420;-69
2022/01/20 02:35:45;;;;;;;26.35;3.65;;;7.90;99.90;;;;;;5065810;28;20411;-69
2022/01/20 02:38:22;;;;;;;22.38;3.67;;;7.90;99.90;;;;;;5065809;28;20403;-70
2022/01/20 02:46:06;;;;;;;16.75;2.88;;;8.00;99.90;;;;;;5110155;27;20416;-69
2022/01/20 02:48:33;;;;;;;16.00;2.50;;;8.00;99.90;;;;;;5109552;27;20400;-69
2022/01/20 02:50:59;;;;;;;15.52;3.10;;;8.10;99.90;;;;;;5108763;27;20515;-69
2022/01/20 02:53:26;;;;;;;12.80;2.78;;;8.10;99.90;;;;;;5109324;27;20428;-69
2022/01/20 02:55:52;;;;;;;14.37;2.53;;;8.00;99.90;;;;;;5092858;27;20399;-69
2022/01/20 02:58:18;;;;;;;12.45;2.30;;;8.00;99.90;;;;;;5115436;27;20395;-69
2022/01/20 03:00:44;;;;;;;15.85;2.60;;;7.90;99.90;;;;;;5113999;27;20395;-69
2022/01/20 03:03:10;;;;;;;13.73;2.13;;;7.80;99.90;;;;;;5106501;28;20824;-69
2022/01/20 03:05:36;;;;;;;18.25;2.22;;;7.80;99.90;;;;;;5092439;28;20492;-69
2022/01/20 03:08:05;;;;;;;22.13;2.50;;;7.80;99.90;;;;;;5106944;28;20468;-69
2022/01/20 03:10:31;;;;;;;15.13;2.60;;;7.90;99.90;;;;;;5109069;28;20392;-69
2022/01/20 03:12:57;;;;;;;19.33;2.92;;;7.90;99.90;;;;;;5093099;28;20482;-69
2022/01/20 03:15:24;;;;;;;25.50;3.75;;;8.00;99.90;;;;;;5115410;28;20400;-68
2022/01/20 03:17:51;;;;;;;20.77;3.55;;;8.00;99.90;;;;;;5108484;28;20482;-68
2022/01/20 03:20:16;;;;;;;25.48;3.58;;;8.00;99.90;;;;;;5097589;28;20453;-69
2022/01/20 03:22:43;;;;;;;18.52;3.03;;;8.00;99.90;;;;;;5107957;28;20399;-69
2022/01/20 03:25:09;;;;;;;18.95;2.67;;;8.10;99.90;;;;;;5113420;28;20408;-70
2022/01/20 03:27:35;;;;;;;14.88;2.25;;;8.10;99.90;;;;;;5106576;28;20404;-69
2022/01/20 03:30:00;;;;;;;13.60;1.98;;;8.10;99.90;;;;;;5106934;28;20783;-69
2022/01/20 03:32:26;;;;;;;18.67;2.45;;;8.10;99.90;;;;;;5108927;28;20438;-69
2022/01/20 03:34:53;;;;;;;13.38;1.92;;;8.10;99.90;;;;;;5115912;28;20409;-69
2022/01/20 03:37:18;;;;;;;12.50;2.23;;;8.10;99.90;;;;;;5109424;28;20410;-68
2022/01/20 03:39:54;;;;;;;13.88;2.42;;;8.10;99.90;;;;;;5116328;28;20957;-69
2022/01/20 03:42:20;;;;;;;13.67;2.30;;;8.00;99.90;;;;;;5112785;28;20406;-68
2022/01/20 03:44:46;;;;;;;17.08;2.50;;;8.00;99.90;;;;;;5096713;28;20759;-68
2022/01/20 03:47:12;;;;;;;17.40;2.60;;;8.00;99.90;;;;;;5111494;28;20777;-68
2022/01/20 03:49:53;;;;;;;16.85;2.80;;;8.00;99.90;;;;;;5107582;28;20561;-68
2022/01/20 03:52:19;;;;;;;25.83;3.85;;;8.00;99.90;;;;;;5106476;28;20488;-69
2022/01/20 03:54:45;;;;;;;23.13;3.37;;;8.00;99.90;;;;;;5107463;28;20830;-69
2022/01/20 03:57:30;;;;;;;27.55;3.53;;;8.00;99.90;;;;;;5106827;28;20475;-69
2022/01/20 03:59:55;;;;;;;24.67;3.67;;;8.00;99.90;;;;;;5118510;27;20390;-69
2022/01/20 04:02:39;;;;;;;19.65;2.67;;;8.00;99.90;;;;;;5109854;27;20397;-69
2022/01/20 04:05:13;;;;;;;17.38;2.65;;;8.00;99.90;;;;;;5125364;27;20470;-69
2022/01/20 04:07:47;;;;;;;19.70;2.83;;;7.90;99.90;;;;;;5117620;27;20410;-69
2022/01/20 04:10:12;;;;;;;19.08;2.83;;;7.90;99.90;;;;;;5110906;28;20931;-69
2022/01/20 04:12:38;;;;;;;24.27;3.20;;;7.90;99.90;;;;;;5098808;27;20778;-69
2022/01/20 04:15:08;;;;;;;22.60;3.15;;;7.80;99.90;;;;;;5111828;28;20416;-69
2022/01/20 04:17:39;;;;;;;24.98;3.60;;;7.80;99.90;;;;;;5111373;27;20416;-69
2022/01/20 04:20:08;;;;;;;30.20;4.13;;;7.80;99.90;;;;;;5110060;27;20408;-69
2022/01/20 04:22:34;;;;;;;26.02;3.80;;;7.80;99.90;;;;;;5095268;28;20491;-69
2022/01/20 04:25:00;;;;;;;34.05;4.50;;;7.80;99.60;;;;;;5114738;27;20469;-68
2022/01/20 04:27:26;;;;;;;37.43;5.27;;;7.80;99.40;;;;;;5110598;27;20900;-68
2022/01/20 04:29:52;;;;;;;37.75;5.18;;;7.80;98.80;;;;;;5115458;27;20400;-68
2022/01/20 04:32:18;;;;;;;31.43;4.67;;;7.80;98.30;;;;;;5110453;27;20400;-68
2022/01/20 04:34:44;;;;;;;28.00;4.82;;;7.80;97.80;;;;;;5124763;27;20501;-69
2022/01/20 04:37:10;;;;;;;35.00;4.80;;;7.90;97.40;;;;;;5117279;27;21076;-69
2022/01/20 04:39:43;;;;;;;34.87;4.80;;;7.90;96.80;;;;;;5110443;28;20392;-69
2022/01/20 04:42:09;;;;;;;25.73;4.13;;;7.90;96.30;;;;;;5115480;27;20450;-70
2022/01/20 04:44:47;;;;;;;23.23;3.87;;;7.90;95.40;;;;;;5112561;27;20408;-69
2022/01/20 04:58:05;;;;;;;21.48;3.33;;;7.90;93.60;;;;;;5111091;27;20450;-69
2022/01/20 05:00:31;;;;;;;23.48;3.58;;;7.90;93.30;;;;;;5093911;28;20408;-69
2022/01/20 05:03:15;;;;;;;24.33;3.17;;;7.90;92.40;;;;;;5108206;28;20757;-69
2022/01/20 05:05:42;;;;;;;20.42;3.25;;;7.90;92.40;;;;;;5115474;27;20399;-69
2022/01/20 05:08:17;;;;;;;24.25;3.33;;;7.90;91.80;;;;;;5112842;27;20389;-69
2022/01/20 05:10:42;;;;;;;22.92;3.22;;;7.90;91.60;;;;;;5107100;28;20450;-69
2022/01/20 05:13:22;;;;;;;21.60;3.47;;;7.90;91.90;;;;;;5118694;27;20404;-70
2022/01/20 05:15:47;;;;;;;26.25;3.55;;;7.90;91.50;;;;;;5119469;27;20402;-70
2022/01/20 05:18:13;;;;;;;21.77;3.10;;;7.80;91.20;;;;;;5109351;28;20416;-69
2022/01/20 05:20:39;;;;;;;28.48;3.47;;;7.90;91.40;;;;;;5108675;28;20401;-70
2022/01/20 05:23:04;;;;;;;18.20;3.70;;;7.80;91.20;;;;;;5125900;27;20400;-69
2022/01/20 05:25:30;;;;;;;27.35;3.90;;;7.80;91.30;;;;;;5110578;27;20399;-70
2022/01/20 05:27:56;;;;;;;23.70;3.65;;;7.80;91.50;;;;;;5117488;27;20456;-70
2022/01/20 05:30:22;;;;;;;15.27;2.97;;;7.80;92.10;;;;;;5113847;27;20438;-69
2022/01/20 05:33:08;;;;;;;17.60;2.90;;;7.80;92.80;;;;;;5109807;27;20408;-69
2022/01/20 05:35:35;;;;;;;17.93;3.10;;;7.80;92.90;;;;;;5123598;27;20552;-69
2022/01/20 05:38:00;;;;;;;18.03;3.00;;;7.70;93.10;;;;;;5107641;27;21013;-70
2022/01/20 05:40:27;;;;;;;20.27;3.05;;;7.70;93.70;;;;;;5115292;27;20526;-70
2022/01/20 05:42:53;;;;;;;18.40;3.22;;;7.70;93.60;;;;;;5107514;28;20406;-70
2022/01/20 05:45:20;;;;;;;21.45;3.40;;;7.70;93.80;;;;;;5116289;27;20924;-70
2022/01/20 05:47:48;;;;;;;23.23;3.35;;;7.70;93.90;;;;;;5110129;27;20422;-70
2022/01/20 05:50:34;;;;;;;27.30;3.72;;;7.70;93.90;;;;;;5108343;27;20860;-70
2022/01/20 05:52:59;;;;;;;26.33;4.03;;;7.70;93.80;;;;;;5105615;27;20392;-68
2022/01/20 05:55:25;;;;;;;22.20;3.70;;;7.70;94.00;;;;;;5119107;27;20396;-69
2022/01/20 05:57:52;;;;;;;23.33;3.50;;;7.70;94.30;;;;;;5118905;27;20411;-69
2022/01/20 06:00:22;;;;;;;25.53;4.00;;;7.70;94.10;;;;;;5106903;28;20408;-70
2022/01/20 06:05:39;;;;;;;18.80;3.88;;;7.70;96.10;;;;;;5136614;27;20404;-71
2022/01/20 06:08:07;;;;;;;12.40;2.38;;;7.50;97.00;;;;;;5108972;27;20427;-70
2022/01/20 06:10:33;;;;;;;8.33;2.10;;;7.50;97.40;;;;;;5102909;27;20429;-75
2022/01/20 06:13:07;;;;;;;12.55;1.80;;;7.40;97.70;;;;;;5098171;28;20536;-71
2022/01/20 06:15:33;;;;;;;10.77;1.80;;;7.30;97.60;;;;;;5117838;27;20510;-71
2022/01/20 06:17:59;;;;;;;12.82;2.03;;;7.30;97.80;;;;;;5121085;27;20438;-71
2022/01/20 06:20:26;;;;;;;12.07;2.30;;;7.30;97.90;;;;;;5086440;28;20399;-71
2022/01/20 06:22:51;;;;;;;13.13;2.63;;;7.20;97.70;;;;;;5105153;28;20923;-72
2022/01/20 06:25:17;;;;;;;14.57;3.17;;;7.20;97.70;;;;;;5107952;27;20408;-72
2022/01/20 06:27:43;;;;;;;17.03;3.53;;;7.20;97.50;;;;;;5103278;28;20416;-72
2022/01/20 06:30:09;;;;;;;16.38;3.20;;;7.20;97.30;;;;;;5105931;28;20400;-71
2022/01/20 06:32:35;;;;;;;23.23;3.65;;;7.20;97.30;;;;;;5095647;27;20402;-71
2022/01/20 06:35:02;;;;;;;20.83;3.43;;;7.20;97.20;;;;;;5090620;28;20416;-71
2022/01/20 06:37:28;;;;;;;24.38;3.22;;;7.20;97.20;;;;;;5107724;27;20908;-70
2022/01/20 06:39:54;;;;;;;25.50;3.70;;;7.20;97.40;;;;;;5111396;27;20399;-71
2022/01/20 06:42:20;;;;;;;18.20;3.15;;;7.20;97.40;;;;;;5107907;27;20413;-71
2022/01/20 06:44:45;;;;;;;18.35;3.28;;;7.20;97.20;;;;;;5109629;27;20427;-71
2022/01/20 06:47:11;;;;;;;17.00;3.20;;;7.20;97.00;;;;;;5110341;27;20412;-72
2022/01/20 06:49:38;;;;;;;13.27;2.70;;;7.20;96.40;;;;;;5110885;27;20895;-72
2022/01/20 06:52:06;;;;;;;17.20;3.27;;;7.20;95.20;;;;;;5095020;28;20753;-72
2022/01/20 06:54:32;;;;;;;23.27;4.35;;;7.20;94.60;;;;;;5104603;27;20957;-72
2022/01/20 06:56:59;;;;;;;21.65;4.03;;;7.30;94.50;;;;;;5107872;27;20924;-72
2022/01/20 06:59:26;;;;;;;21.77;4.13;;;7.30;93.10;;;;;;5108625;28;20503;-73
2022/01/20 07:01:52;;;;;;;22.97;4.27;;;7.20;93.10;;;;;;5107724;28;20542;-73
2022/01/20 07:04:27;;;;;;;19.52;4.60;;;7.20;93.30;;;;;;5094130;28;20631;-72
2022/01/20 07:06:54;;;;;;;21.35;3.45;;;7.20;93.50;;;;;;5110932;27;20430;-72
2022/01/20 07:09:33;;;;;;;23.00;3.60;;;7.20;93.20;;;;;;5106723;28;22160;-73
2022/01/20 07:12:04;;;;;;;25.85;3.90;;;7.20;93.60;;;;;;5090417;28;20550;-71
2022/01/20 07:14:30;;;;;;;24.48;4.13;;;7.20;94.30;;;;;;5092288;28;20486;-71
2022/01/20 07:16:57;;;;;;;23.75;4.20;;;7.20;95.40;;;;;;5106161;28;20400;-73
2022/01/20 07:19:24;;;;;;;22.75;4.70;;;7.20;95.90;;;;;;5110044;28;20392;-72
2022/01/20 07:21:50;;;;;;;26.05;4.85;;;7.20;95.80;;;;;;5106798;28;20872;-72
2022/01/20 07:24:20;;;;;;;22.50;5.00;;;7.20;95.50;;;;;;5103977;28;20844;-72
2022/01/20 07:26:45;;;;;;;25.95;5.68;;;7.20;95.30;;;;;;5111743;28;20501;-74
2022/01/20 07:29:31;;;;;;;29.10;5.47;;;7.20;95.20;;;;;;5105512;28;20453;-73
2022/01/20 07:31:58;;;;;;;23.17;4.55;;;7.30;95.30;;;;;;5103190;28;20402;-75
2022/01/20 07:34:24;;;;;;;26.05;4.25;;;7.20;94.20;;;;;;5123567;27;20916;-75
2022/01/20 07:36:50;;;;;;;23.90;5.32;;;7.30;93.70;;;;;;5098628;28;20460;-73
2022/01/20 07:39:16;;;;;;;18.03;3.57;;;7.20;93.10;;;;;;5114250;27;20444;-74
2022/01/20 07:41:42;;;;;;;20.75;3.70;;;7.20;92.70;;;;;;5093098;28;20765;-74
2022/01/20 07:44:27;;;;;;;26.17;4.43;;;7.20;92.60;;;;;;5110306;27;20888;-74
2022/01/20 07:47:06;;;;;;;28.63;4.78;;;7.10;93.00;;;;;;5108187;28;20411;-72
2022/01/20 07:49:31;;;;;;;27.27;5.13;;;7.10;92.80;;;;;;5136835;27;20900;-75
2022/01/20 07:51:57;;;;;;;24.17;4.18;;;7.10;92.80;;;;;;5092357;28;20408;-75
2022/01/20 07:54:23;;;;;;;27.50;4.40;;;7.10;92.50;;;;;;5118475;27;20417;-75
2022/01/20 07:56:49;;;;;;;21.85;4.28;;;7.10;92.50;;;;;;5119166;27;20384;-75
2022/01/20 07:59:15;;;;;;;25.27;4.78;;;7.20;92.60;;;;;;5115983;27;20478;-73
2022/01/20 08:01:43;;;;;;;24.63;3.92;;;7.30;92.70;;;;;;5110811;27;20480;-74
2022/01/20 08:04:11;;;;;;;22.98;4.15;;;7.30;92.60;;;;;;5115382;27;20396;-73
2022/01/20 08:06:37;;;;;;;22.48;3.63;;;7.40;92.70;;;;;;5109370;27;20494;-73
2022/01/20 08:09:19;;;;;;;25.10;3.83;;;7.40;92.50;;;;;;5100907;28;20416;-73
2022/01/20 08:12:14;;;;;;;25.67;3.53;;;7.40;92.50;;;;;;5094928;27;20404;-73
2022/01/20 08:15:09;;;;;;;21.58;3.28;;;7.50;92.10;;;;;;5099952;28;20492;-72
2022/01/20 08:17:43;;;;;;;21.38;3.30;;;7.50;91.90;;;;;;5101490;28;20420;-72
2022/01/20 08:20:10;;;;;;;21.27;3.33;;;7.50;91.80;;;;;;5110460;27;20404;-72
2022/01/20 08:22:36;;;;;;;28.95;3.85;;;7.50;92.10;;;;;;5113427;27;20415;-73
2022/01/20 08:25:08;;;;;;;21.45;3.50;;;7.50;92.00;;;;;;5107597;27;20408;-73
2022/01/20 08:27:36;;;;;;;24.58;4.05;;;7.60;92.00;;;;;;5112776;27;20392;-72
2022/01/20 08:30:06;;;;;;;25.38;4.00;;;7.60;91.80;;;;;;5093426;28;20415;-72
2022/01/20 08:32:32;;;;;;;19.35;3.30;;;7.60;91.70;;;;;;5093918;28;20420;-69
2022/01/20 08:35:31;;;;;;;19.25;3.00;;;7.60;91.40;;;;;;5095999;27;20469;-73
2022/01/20 08:38:03;;;;;;;20.50;3.65;;;7.60;90.50;;;;;;5106013;28;20407;-72
2022/01/20 08:40:29;;;;;;;21.50;3.70;;;7.60;90.30;;;;;;5110706;27;20415;-73
2022/01/20 08:42:56;;;;;;;23.25;4.45;;;7.60;90.30;;;;;;5109736;27;20786;-71
2022/01/20 08:45:24;;;;;;;20.02;4.13;;;7.60;90.30;;;;;;5108818;27;20452;-72
2022/01/20 08:47:54;;;;;;;21.77;4.50;;;7.60;90.50;;;;;;5114372;27;20897;-72
2022/01/20 08:50:23;;;;;;;20.00;4.30;;;7.60;89.90;;;;;;5088764;27;20412;-71
2022/01/20 08:52:49;;;;;;;21.93;4.27;;;7.60;89.40;;;;;;5124149;27;20939;-71
2022/01/20 08:55:16;;;;;;;22.40;4.55;;;7.70;88.50;;;;;;5125765;27;20414;-71
2022/01/20 08:57:54;;;;;;;17.00;4.00;;;7.80;88.90;;;;;;5109352;28;20408;-72
2022/01/20 09:00:21;;;;;;;14.55;3.75;;;8.10;89.00;;;;;;5116096;27;20396;-74
2022/01/20 09:02:56;;;;;;;18.88;3.95;;;8.90;86.30;;;;;;5107412;28;20396;-71
2022/01/20 09:05:22;;;;;;;21.17;3.60;;;9.70;81.40;;;;;;5108499;27;20412;-71
2022/01/20 09:08:12;;;;;;;21.97;3.60;;;10.40;77.70;;;;;;5124151;27;20730;-72
2022/01/20 09:10:39;;;;;;;19.10;3.58;;;10.80;75.00;;;;;;5121320;27;20402;-71
2022/01/20 09:15:55;;;;;;;18.60;3.45;;;10.60;74.30;;;;;;5106250;28;20458;-70
2022/01/20 09:18:36;;;;;;;18.55;3.20;;;10.30;75.50;;;;;;5100727;28;20412;-70
2022/01/20 09:21:02;;;;;;;18.95;3.42;;;10.00;77.20;;;;;;5091067;28;20467;-71
2022/01/20 09:23:28;;;;;;;20.47;3.63;;;9.70;77.20;;;;;;5110706;27;20400;-70
2022/01/20 09:25:55;;;;;;;19.80;3.08;;;9.50;79.70;;;;;;5106537;28;20922;-70
2022/01/20 09:28:24;;;;;;;17.57;2.93;;;9.30;79.90;;;;;;5110214;28;20407;-70
2022/01/20 09:30:51;;;;;;;17.30;3.17;;;9.10;80.30;;;;;;5109873;27;20414;-71
2022/01/20 09:33:26;;;;;;;21.33;3.10;;;8.90;79.70;;;;;;5108218;28;20405;-69
2022/01/20 09:35:52;;;;;;;14.47;2.50;;;8.80;81.60;;;;;;5106311;28;21778;-70
2022/01/20 09:38:18;;;;;;;12.02;2.58;;;8.70;81.80;;;;;;5112614;27;20432;-70
2022/01/20 09:40:44;;;;;;;13.27;2.33;;;8.60;83.00;;;;;;5107312;28;20740;-70
2022/01/20 09:43:14;;;;;;;13.17;2.60;;;8.60;83.70;;;;;;5092804;28;20423;-70
2022/01/20 09:45:41;;;;;;;15.18;2.53;;;8.60;83.50;;;;;;5119428;27;20792;-70
2022/01/20 09:48:09;;;;;;;14.32;2.58;;;8.60;84.10;;;;;;5092094;28;20380;-70
2022/01/20 09:50:59;;;;;;;;;;;8.90;86.00;;;;;;5103209;27;20084;-71
2022/01/20 09:53:45;;;;;;;;;;;9.50;88.90;;;;;;5100974;27;20303;-72
2022/01/20 09:56:20;;;;;;;;;;;10.30;90.10;;;;;;5093399;28;19911;-70
2022/01/20 09:58:46;;;;;;;;;;;11.00;90.10;;;;;;5117982;27;19915;-71
2022/01/20 10:01:17;;;;;;;;;;;11.10;89.00;;;;;;5112675;27;19918;-71
2022/01/20 10:03:45;;;;;;;;;;;10.80;89.20;;;;;;5110760;27;20036;-70
2022/01/20 10:06:11;;;;;;;14.80;2.40;;;10.30;89.50;;;;;;5108264;27;20236;-71
2022/01/20 10:08:56;;;;;;;14.07;2.60;;;9.80;90.10;;;;;;5112711;27;20878;-71
2022/01/20 10:11:40;;;;;;;18.50;3.10;;;10.00;84.20;;;;;;5102997;28;20419;-72
2022/01/20 10:14:19;;;;;;;20.45;2.92;;;10.00;81.60;;;;;;5113303;27;20790;-71
2022/01/20 10:17:29;;;;;;;15.70;2.67;;;9.90;82.50;;;;;;5106805;28;20188;-70
2022/01/20 10:20:00;;;;;;;21.52;3.65;;;9.20;85.10;;;;;;5109168;28;20234;-70
2022/01/20 10:22:34;;;;;;;15.35;2.80;;;8.90;87.30;;;;;;5110584;27;20264;-72
2022/01/20 10:25:12;;;;;;;15.23;2.90;;;8.80;88.00;;;;;;5118145;27;20408;-70
2022/01/20 10:27:55;;;;;;;;;;;9.40;87.10;;;;;;5108949;27;20380;-70
2022/01/20 10:30:25;;;;;;;;;;;9.60;89.40;;;;;;5115853;27;19919;-69
2022/01/20 10:32:54;;;;;;;;;;;10.00;90.00;;;;;;5105917;27;19934;-70
2022/01/20 10:35:24;;;;;;;;;;;10.10;89.50;;;;;;5113765;27;19922;-70
2022/01/20 10:38:09;;;;;;;;;;;10.10;89.20;;;;;;5103913;27;19915;-70
2022/01/20 10:40:47;;;;;;;;;;;10.00;88.50;;;;;;5136054;27;20346;-71
2022/01/20 10:43:20;;;;;;;;;;;9.90;89.60;;;;;;5109066;28;19911;-71
2022/01/20 10:45:45;;;;;;;18.08;3.05;;;9.90;90.30;;;;;;5122927;27;20964;-70
2022/01/20 10:48:18;;;;;;;17.73;2.87;;;10.50;81.00;;;;;;5112749;27;20534;-70
2022/01/20 10:50:43;;;;;;;22.60;3.57;;;10.80;77.70;;;;;;5108788;27;20932;-70
2022/01/20 10:53:21;;;;;;;20.45;3.00;;;10.80;78.10;;;;;;5117881;27;20268;-71
2022/01/20 10:55:49;;;;;;;14.20;2.70;;;10.10;81.30;;;;;;5107861;27;20201;-71
2022/01/20 10:58:22;;;;;;;21.70;4.07;;;9.50;84.40;;;;;;5141172;27;20475;-70
2022/01/20 11:00:51;;;;;;;23.55;4.57;;;9.50;90.40;;;;;;5118123;27;20477;-70
2022/01/20 11:03:19;;;;;;;21.92;5.00;;;9.60;91.50;;;;;;5123137;27;20926;-69
2022/01/20 11:05:50;;;;;;;24.15;4.75;;;9.60;92.10;;;;;;5112641;27;20512;-70
2022/01/20 11:08:24;;;;;;;27.25;5.72;;;9.60;92.20;;;;;;5106661;28;20411;-69
2022/01/20 11:10:51;;;;;;;24.33;4.80;;;9.60;92.50;;;;;;5108338;27;20416;-69
2022/01/20 11:13:30;;;;;;;21.90;4.72;;;9.60;91.70;;;;;;5108746;28;20408;-71
2022/01/20 11:15:57;;;;;;;17.83;3.22;;;9.70;91.10;;;;;;5094850;28;20411;-71
2022/01/20 11:18:27;;;;;;;16.63;2.90;;;10.10;90.20;;;;;;5118887;28;20400;-70
2022/01/20 11:20:55;;;;;;;14.88;2.83;;;10.80;87.10;;;;;;5140350;27;20413;-70
2022/01/20 11:23:39;;;;;;;13.25;2.40;;;11.80;82.50;;;;;;5109551;28;20430;-73
2022/01/20 11:26:23;;;;;;;;;;;12.70;77.70;;;;;;5110974;28;20436;-73
2022/01/20 11:29:11;;;;;;;17.77;2.40;;;12.30;82.30;;;;;;5095704;28;20695;-73
2022/01/20 11:31:48;;;;;;;13.63;2.50;;;12.40;85.50;;;;;;5110400;28;20422;-74
2022/01/20 11:34:36;;;;;;;13.07;2.08;;;14.00;69.40;;;;;;5111944;28;20455;-73
2022/01/20 11:37:09;;;;;;;14.57;2.47;;;15.30;62.30;;;;;;5111242;28;20830;-74
2022/01/20 11:39:35;;;;;;;15.32;2.55;;;16.00;58.10;;;;;;5110770;28;20475;-73
2022/01/20 11:42:01;;;;;;;20.60;3.17;;;16.50;55.70;;;;;;5108777;28;20495;-73
2022/01/20 11:44:30;;;;;;;18.92;2.70;;;16.50;54.30;;;;;;5106120;28;20422;-74
2022/01/20 11:47:06;;;;;;;19.45;2.67;;;16.20;54.80;;;;;;5109561;28;20773;-74
2022/01/20 11:49:37;;;;;;;19.15;3.00;;;16.10;54.10;;;;;;5118268;28;20395;-74
2022/01/20 11:52:03;;;;;;;13.77;2.28;;;15.80;54.60;;;;;;5107961;28;20239;-73
2022/01/20 11:54:41;;;;;;;16.75;2.05;;;14.50;57.70;;;;;;5113257;28;20204;-73
2022/01/20 11:57:10;;;;;;;19.10;2.40;;;13.30;60.60;;;;;;5106035;28;20181;-72
2022/01/20 11:59:55;;;;;;;16.95;3.20;;;12.50;63.30;;;;;;5105584;28;20397;-72
2022/01/20 12:02:28;;;;;;;17.38;3.90;;;12.40;63.60;;;;;;5103977;28;20892;-72
2022/01/20 12:04:57;;;;;;;15.40;3.03;;;12.30;65.20;;;;;;5105131;28;20453;-72
2022/01/20 12:07:33;;;;;;;;;;;12.10;67.90;;;;;;5110642;28;20020;-74
2022/01/20 12:10:10;;;;;;;12.93;2.00;;;11.30;69.70;;;;;;5105616;28;20191;-71
2022/01/20 12:12:39;;;;;;;16.90;2.88;;;10.60;72.10;;;;;;5107741;28;20653;-71
2022/01/20 12:15:10;;;;;;;16.98;2.65;;;10.30;75.00;;;;;;5111427;28;20216;-71
2022/01/20 12:17:37;;;;;;;19.10;2.40;;;10.40;77.70;;;;;;5108906;28;20189;-71
2022/01/20 12:20:04;;;;;;;15.43;2.47;;;10.50;78.20;;;;;;5110946;27;20238;-72
2022/01/20 12:22:30;;;;;;;17.55;2.45;;;10.50;78.90;;;;;;5111300;27;20226;-72
2022/01/20 12:24:57;;;;;;;20.95;2.53;;;10.30;79.70;;;;;;5115751;27;20657;-71
2022/01/20 12:27:25;;;;;;;20.58;2.80;;;10.00;80.60;;;;;;5113387;27;20180;-72
2022/01/20 12:29:51;;;;;;;18.98;2.88;;;9.60;82.40;;;;;;5100155;28;20408;-71
2022/01/20 12:32:20;;;;;;;16.45;2.50;;;9.90;90.00;;;;;;5110905;27;20457;-72
2022/01/20 12:35:06;;;;;;;14.13;2.15;;;10.00;90.40;;;;;;5109179;28;20447;-71
2022/01/20 12:37:37;;;;;;;23.85;7.72;;;9.90;89.60;;;;;;5110100;28;20753;-71
2022/01/20 12:40:04;;;;;;;13.00;2.63;;;10.00;90.90;;;;;;5120471;27;20903;-71
2022/01/20 12:42:36;;;;;;;9.63;2.33;;;10.30;90.40;;;;;;5107726;27;20407;-71
2022/01/20 12:47:50;;;;;;;12.00;2.20;;;11.00;90.20;;;;;;5099692;27;20412;-72
2022/01/20 12:50:16;;;;;;;10.32;2.13;;;11.30;90.00;;;;;;5111668;27;20857;-72
2022/01/20 12:52:49;;;;;;;11.90;2.00;;;11.70;90.10;;;;;;5109776;27;20416;-70
2022/01/20 12:55:17;;;;;;;11.38;1.88;;;12.20;87.40;;;;;;5114520;27;20415;-72
2022/01/20 12:57:44;;;;;;;10.60;1.80;;;12.60;84.60;;;;;;5111217;27;20422;-72
2022/01/20 13:00:10;;;;;;;;;;;12.90;83.20;;;;;;5113226;28;20031;-73
2022/01/20 13:02:35;;;;;;;;;;;12.40;85.00;;;;;;5115190;27;19971;-72
2022/01/20 13:05:02;;;;;;;;;;;12.00;87.10;;;;;;5116846;27;20360;-70
2022/01/20 13:07:29;;;;;;;;;;;11.90;88.50;;;;;;5122665;27;19907;-72
2022/01/20 13:10:04;;;;;;;;;;;11.70;89.20;;;;;;5119808;27;19916;-73
2022/01/20 13:12:41;;;;;;;15.88;2.13;;;11.60;89.80;;;;;;5143427;27;20319;-72
2022/01/20 13:15:23;;;;;;;17.33;2.28;;;11.40;90.10;;;;;;5108627;27;20282;-71
2022/01/20 13:18:01;;;;;;;16.85;2.45;;;11.20;89.20;;;;;;5109366;28;20196;-70
2022/01/20 13:20:26;;;;;;;24.38;2.72;;;11.00;89.40;;;;;;5122522;27;20192;-73
2022/01/20 13:23:08;;;;;;;18.17;2.70;;;10.80;89.70;;;;;;5109754;28;20169;-71
2022/01/20 13:25:39;;;;;;;13.40;2.45;;;10.70;90.00;;;;;;5108783;28;20636;-71
2022/01/20 13:28:10;;;;;;;23.10;3.40;;;10.60;90.40;;;;;;5111903;28;20177;-71
2022/01/20 13:30:48;;;;;;;16.13;2.58;;;10.60;90.10;;;;;;5108478;28;20196;-71
2022/01/20 13:33:22;;;;;;;23.83;2.80;;;10.60;90.20;;;;;;5126662;27;20193;-69
2022/01/20 13:35:55;;;;;;;19.98;3.03;;;10.70;90.40;;;;;;5110883;27;20197;-71
2022/01/20 13:38:33;;;;;;;19.90;3.28;;;10.90;90.40;;;;;;5118132;27;20193;-71
2022/01/20 13:41:12;;;;;;;22.40;3.85;;;11.10;90.00;;;;;;5109802;28;20190;-71
2022/01/20 13:46:39;;;;;;;24.70;3.28;;;11.10;88.80;;;;;;5109360;27;20205;-72
2022/01/20 13:49:11;;;;;;;18.77;3.22;;;11.10;88.30;;;;;;5111823;28;20268;-72
2022/01/20 13:51:38;;;;;;;12.70;2.72;;;10.90;87.30;;;;;;5111306;27;20262;-72
2022/01/20 13:54:03;;;;;;;19.33;2.67;;;10.80;87.00;;;;;;5111516;27;20702;-71
2022/01/20 13:56:30;;;;;;;19.33;2.97;;;10.60;86.40;;;;;;5109117;27;20193;-73
2022/01/20 13:59:08;;;;;;;8.00;2.05;;;10.50;86.40;;;;;;5118040;27;20227;-71
2022/01/20 14:01:33;;;;;;;11.23;3.35;;;10.30;86.50;;;;;;5111045;27;20470;-69
2022/01/20 14:04:00;;;;;;;14.13;2.60;;;10.60;86.60;;;;;;5137035;27;20412;-72
2022/01/20 14:06:26;;;;;;;12.95;2.60;;;10.80;89.30;;;;;;5108249;28;20423;-71
2022/01/20 14:08:52;;;;;;;13.00;2.45;;;10.70;89.20;;;;;;5108864;28;20468;-72
2022/01/20 14:11:19;;;;;;;15.23;2.75;;;10.60;90.20;;;;;;5105210;27;20436;-71
2022/01/20 14:13:45;;;;;;;19.13;2.87;;;10.40;90.90;;;;;;5110955;27;20924;-71
2022/01/20 14:16:11;;;;;;;14.80;2.80;;;10.30;91.10;;;;;;5107297;28;20404;-71
2022/01/20 14:18:45;;;;;;;18.75;3.40;;;10.30;90.10;;;;;;5109708;27;20403;-71
2022/01/20 14:21:13;;;;;;;18.48;3.45;;;10.30;90.10;;;;;;5106123;28;20412;-70